createdAt,value
2022-08-01T00:00:08.949Z,4.60
2022-08-01T00:02:39.224Z,4.25
2022-08-01T00:05:08.040Z,4.62
2022-08-01T00:07:35.880Z,4.25
2022-08-01T00:10:09.578Z,4.45
2022-08-01T00:12:36.508Z,4.32
2022-08-01T00:15:06.521Z,5.20
2022-08-01T00:17:33.534Z,4.95
2022-08-01T00:20:00.314Z,5.45
2022-08-01T00:22:27.255Z,5.22
2022-08-01T00:24:53.882Z,5.00
2022-08-01T00:27:20.554Z,4.43
2022-08-01T00:30:10.131Z,5.12
2022-08-01T00:32:34.174Z,4.87
2022-08-01T00:35:01.114Z,5.50
2022-08-01T00:37:27.901Z,4.97
2022-08-01T00:39:54.609Z,5.50
2022-08-01T00:42:22.076Z,5.22
2022-08-01T00:44:48.781Z,5.82
2022-08-01T00:47:15.527Z,5.90
2022-08-01T00:49:42.500Z,5.28
2022-08-01T00:52:10.035Z,5.18
2022-08-01T00:54:37.086Z,5.65
2022-08-01T00:57:04.662Z,5.15
2022-08-01T00:59:31.504Z,6.10
2022-08-01T01:01:58.846Z,5.93
2022-08-01T01:04:26.137Z,5.57
2022-08-01T01:06:58.562Z,5.70
2022-08-01T01:09:34.295Z,5.72
2022-08-01T01:12:35.997Z,5.70
2022-08-01T01:15:11.757Z,5.90
2022-08-01T01:17:53.949Z,5.95
2022-08-01T01:20:25.292Z,6.03
2022-08-01T01:23:06.918Z,5.75
2022-08-01T01:26:03.066Z,5.47
2022-08-01T01:28:51.481Z,5.15
2022-08-01T01:31:22.319Z,5.25
2022-08-01T01:33:50.650Z,5.40
2022-08-01T01:36:20.407Z,4.97
2022-08-01T01:38:48.604Z,4.75
2022-08-01T01:41:19.079Z,5.35
2022-08-01T01:43:47.832Z,5.62
2022-08-01T01:46:19.936Z,5.40
2022-08-01T01:48:48.626Z,5.53
2022-08-01T01:51:16.365Z,5.50
2022-08-01T01:53:45.121Z,5.78
2022-08-01T01:56:14.946Z,5.30
2022-08-01T01:58:43.245Z,5.68
2022-08-01T02:01:14.722Z,5.75
2022-08-01T02:03:44.379Z,5.70
2022-08-01T02:06:15.725Z,5.75
2022-08-01T02:08:44.031Z,5.62
2022-08-01T02:11:20.728Z,6.28
2022-08-01T02:14:09.320Z,5.30
2022-08-01T02:16:38.532Z,5.93
2022-08-01T02:19:05.412Z,5.75
2022-08-01T02:21:38.356Z,6.03
2022-08-01T02:24:21.977Z,6.12
2022-08-01T02:29:34.147Z,5.15
2022-08-01T02:32:02.742Z,5.43
2022-08-01T02:34:33.288Z,5.30
2022-08-01T02:37:02.092Z,5.07
2022-08-01T02:39:31.023Z,5.47
2022-08-01T02:42:04.647Z,5.53
2022-08-01T02:44:36.239Z,5.43
2022-08-01T02:47:05.876Z,5.78
2022-08-01T02:49:40.107Z,5.10
2022-08-01T02:52:10.948Z,5.93
2022-08-01T02:54:39.953Z,5.43
2022-08-01T02:57:13.655Z,5.60
2022-08-01T02:59:43.426Z,5.07
2022-08-01T03:02:13.499Z,5.78
2022-08-01T03:04:42.459Z,5.68
2022-08-01T03:07:11.452Z,5.65
2022-08-01T03:09:41.756Z,5.80
2022-08-01T03:12:14.727Z,5.25
2022-08-01T03:14:44.068Z,5.47
2022-08-01T03:17:12.506Z,5.50
2022-08-01T03:19:40.272Z,5.47
2022-08-01T03:22:14.015Z,5.65
2022-08-01T03:24:42.408Z,5.30
2022-08-01T03:27:10.088Z,4.82
2022-08-01T03:29:40.329Z,6.03
2022-08-01T03:32:08.374Z,5.00
2022-08-01T03:34:35.577Z,5.12
2022-08-01T03:37:13.446Z,4.50
2022-08-01T03:40:15.705Z,4.53
2022-08-01T03:45:22.400Z,4.50
2022-08-01T03:47:53.676Z,5.22
2022-08-01T03:50:23.681Z,4.90
2022-08-01T03:52:52.269Z,4.72
2022-08-01T03:55:21.757Z,4.37
2022-08-01T03:57:49.505Z,4.80
2022-08-01T04:00:19.421Z,4.80
2022-08-01T04:02:48.352Z,6.70
2022-08-01T04:05:16.470Z,6.30
2022-08-01T04:07:47.666Z,9.90
2022-08-01T04:12:41.256Z,5.37
2022-08-01T04:15:08.384Z,6.53
2022-08-01T04:17:35.269Z,5.05
2022-08-01T04:20:01.947Z,6.18
2022-08-01T04:22:29.143Z,5.28
2022-08-01T04:24:58.471Z,5.35
2022-08-01T04:27:50.529Z,5.62
2022-08-01T04:30:23.666Z,5.25
2022-08-01T04:32:52.901Z,5.47
2022-08-01T04:35:23.358Z,4.50
2022-08-01T04:38:10.878Z,5.40
2022-08-01T04:40:39.065Z,4.50
2022-08-01T04:43:06.926Z,4.68
2022-08-01T04:45:34.407Z,4.90
2022-08-01T04:48:02.095Z,4.50
2022-08-01T04:50:29.592Z,4.75
2022-08-01T04:52:56.961Z,4.87
2022-08-01T04:55:24.247Z,4.87
2022-08-01T04:57:51.244Z,4.60
2022-08-01T05:00:17.959Z,3.60
2022-08-01T05:02:45.082Z,4.50
2022-08-01T05:05:11.917Z,4.55
2022-08-01T05:07:44.893Z,4.75
2022-08-01T05:10:12.896Z,4.28
2022-08-01T05:12:39.604Z,4.30
2022-08-01T05:15:13.019Z,4.50
2022-08-01T05:17:43.405Z,4.10
2022-08-01T05:20:12.407Z,3.60
2022-08-01T05:22:39.346Z,3.53
2022-08-01T05:25:06.785Z,3.78
2022-08-01T05:27:33.616Z,3.58
2022-08-01T05:30:00.670Z,4.28
2022-08-01T05:32:28.247Z,3.28
2022-08-01T05:34:54.911Z,4.12
2022-08-01T05:37:21.573Z,3.65
2022-08-01T05:39:48.574Z,5.00
2022-08-01T05:42:15.240Z,4.62
2022-08-01T05:44:42.150Z,5.10
2022-08-01T05:47:09.144Z,4.87
2022-08-01T05:49:36.036Z,5.68
2022-08-01T05:52:03.445Z,5.25
2022-08-01T05:54:30.844Z,4.95
2022-08-01T05:57:00.805Z,3.92
2022-08-01T05:59:27.487Z,4.87
2022-08-01T06:01:55.032Z,4.80
2022-08-01T06:04:22.409Z,4.80
2022-08-01T06:06:49.161Z,4.70
2022-08-01T06:09:15.875Z,5.37
2022-08-01T06:11:42.842Z,4.75
2022-08-01T06:14:09.544Z,4.60
2022-08-01T06:16:36.234Z,3.75
2022-08-01T06:19:03.312Z,4.28
2022-08-01T06:21:30.034Z,4.65
2022-08-01T06:23:56.649Z,4.62
2022-08-01T06:26:23.606Z,4.28
2022-08-01T06:28:50.390Z,4.40
2022-08-01T06:31:17.084Z,4.00
2022-08-01T06:33:44.200Z,4.30
2022-08-01T06:36:10.859Z,4.57
2022-08-01T06:38:38.506Z,3.83
2022-08-01T06:41:05.501Z,4.35
2022-08-01T06:43:32.336Z,3.90
2022-08-01T06:45:59.147Z,3.92
2022-08-01T06:48:26.200Z,4.25
2022-08-01T06:51:08.944Z,4.47
2022-08-01T06:53:37.406Z,4.22
2022-08-01T06:56:04.957Z,3.78
2022-08-01T06:58:32.018Z,4.62
2022-08-01T07:00:59.526Z,4.35
2022-08-01T07:03:27.757Z,3.65
2022-08-01T07:06:15.964Z,4.03
2022-08-01T07:08:42.721Z,3.90
2022-08-01T07:11:09.386Z,3.65
2022-08-01T07:13:44.102Z,3.67
2022-08-01T07:16:13.943Z,4.03
2022-08-01T07:18:41.552Z,3.72
2022-08-01T07:21:16.744Z,3.50
2022-08-01T07:23:55.980Z,3.53
2022-08-01T07:26:23.321Z,3.87
2022-08-01T07:28:50.050Z,3.45
2022-08-01T07:31:17.150Z,3.00
2022-08-01T07:33:47.964Z,3.65
2022-08-01T07:36:17.404Z,3.45
2022-08-01T07:38:45.745Z,3.50
2022-08-01T07:41:12.460Z,3.62
2022-08-01T07:43:39.261Z,4.10
2022-08-01T07:46:06.636Z,3.20
2022-08-01T07:48:34.499Z,4.40
2022-08-01T07:51:01.631Z,4.10
2022-08-01T07:53:28.817Z,3.33
2022-08-01T07:55:55.485Z,3.87
2022-08-01T07:58:22.184Z,3.50
2022-08-01T08:00:49.313Z,3.65
2022-08-01T08:03:16.326Z,3.95
2022-08-01T08:05:59.583Z,3.35
2022-08-01T08:08:27.460Z,3.00
2022-08-01T08:10:54.635Z,3.53
2022-08-01T08:13:21.963Z,3.40
2022-08-01T08:15:49.251Z,3.67
2022-08-01T08:18:16.979Z,3.70
2022-08-01T08:20:44.216Z,3.70
2022-08-01T08:23:43.055Z,3.80
2022-08-01T08:26:12.287Z,3.42
2022-08-01T08:28:40.598Z,3.60
2022-08-01T08:31:24.856Z,3.80
2022-08-01T08:33:55.498Z,3.95
2022-08-01T08:36:22.270Z,3.90
2022-08-01T08:38:58.417Z,4.28
2022-08-01T08:41:25.787Z,5.25
2022-08-01T08:43:52.628Z,3.55
2022-08-01T08:46:19.980Z,4.22
2022-08-01T08:48:57.032Z,5.82
2022-08-01T08:51:27.108Z,4.20
2022-08-01T08:53:57.218Z,7.80
2022-08-01T08:56:30.884Z,4.55
2022-08-01T08:58:58.490Z,11.93
2022-08-01T09:01:25.457Z,7.07
2022-08-01T09:03:52.203Z,4.20
2022-08-01T09:06:19.003Z,4.03
2022-08-01T09:08:46.304Z,3.95
2022-08-01T09:11:16.058Z,3.95
2022-08-01T09:14:13.277Z,4.28
2022-08-01T09:16:48.705Z,4.62
2022-08-01T09:19:39.514Z,4.40
2022-08-01T09:22:13.617Z,9.82
2022-08-01T09:24:41.755Z,7.45
2022-08-01T09:27:22.139Z,5.70
2022-08-01T09:30:01.481Z,4.50
2022-08-01T09:32:36.139Z,10.20
2022-08-01T09:35:43.947Z,5.55
2022-08-01T09:38:19.751Z,5.78
2022-08-01T09:40:58.164Z,7.35
2022-08-01T09:43:28.759Z,6.15
2022-08-01T09:45:59.584Z,6.65
2022-08-01T09:48:29.627Z,6.10
2022-08-01T09:51:05.132Z,6.80
2022-08-01T09:53:52.157Z,5.68
2022-08-01T09:56:21.428Z,5.40
2022-08-01T09:59:02.606Z,5.78
2022-08-01T10:01:43.711Z,6.90
2022-08-01T10:04:15.304Z,5.37
2022-08-01T10:06:45.083Z,4.75
2022-08-01T10:09:15.281Z,5.03
2022-08-01T10:11:45.032Z,5.80
2022-08-01T10:14:17.795Z,6.80
2022-08-01T10:16:46.312Z,6.07
2022-08-01T10:19:24.423Z,6.20
2022-08-01T10:21:57.842Z,5.90
2022-08-01T10:24:29.525Z,5.53
2022-08-01T10:27:12.152Z,5.25
2022-08-01T10:30:19.968Z,6.32
2022-08-01T10:32:53.078Z,6.10
2022-08-01T10:35:47.541Z,6.05
2022-08-01T10:38:10.563Z,6.43
2022-08-01T10:40:39.847Z,6.55
2022-08-01T10:43:07.704Z,6.00
2022-08-01T10:45:35.189Z,5.32
2022-08-01T10:48:40.533Z,7.70
2022-08-01T10:51:17.944Z,10.77
2022-08-01T10:53:54.170Z,7.18
2022-08-01T10:56:26.788Z,13.60
2022-08-01T10:59:06.240Z,6.65
2022-08-01T11:01:37.574Z,7.57
2022-08-01T11:04:12.571Z,8.05
2022-08-01T11:06:45.941Z,6.82
2022-08-01T11:09:16.489Z,7.43
2022-08-01T11:12:06.131Z,5.97
2022-08-01T11:14:55.295Z,7.25
2022-08-01T11:17:38.011Z,6.03
2022-08-01T11:20:08.289Z,6.05
2022-08-01T11:22:59.995Z,5.95
2022-08-01T11:26:03.414Z,6.75
2022-08-01T11:28:36.461Z,5.60
2022-08-01T11:31:11.005Z,5.75
2022-08-01T11:33:45.951Z,7.37
2022-08-01T11:36:14.524Z,6.65
2022-08-01T11:38:45.628Z,7.15
2022-08-01T11:41:17.775Z,6.53
2022-08-01T11:44:03.364Z,6.90
2022-08-01T11:46:56.353Z,6.60
2022-08-01T11:49:28.985Z,6.68
2022-08-01T11:52:10.797Z,6.87
2022-08-01T11:54:47.154Z,6.80
2022-08-01T11:57:18.547Z,6.87
2022-08-01T11:59:55.414Z,6.40
2022-08-01T12:02:38.964Z,6.25
2022-08-01T12:05:12.909Z,6.35
2022-08-01T12:07:42.569Z,7.03
2022-08-01T12:10:12.758Z,6.47
2022-08-01T12:13:02.014Z,6.40
2022-08-01T12:15:38.088Z,7.30
2022-08-01T12:18:06.932Z,6.30
2022-08-01T12:20:36.706Z,6.95
2022-08-01T12:23:09.081Z,6.65
2022-08-01T12:25:37.495Z,7.10
2022-08-01T12:28:09.469Z,6.72
2022-08-01T12:30:38.779Z,7.10
2022-08-01T12:33:07.963Z,6.50
2022-08-01T12:35:37.424Z,6.30
2022-08-01T12:38:16.054Z,7.12
2022-08-01T12:40:45.501Z,7.00
2022-08-01T12:43:28.569Z,6.93
2022-08-01T12:46:00.227Z,6.20
2022-08-01T12:48:29.041Z,6.90
2022-08-01T12:50:59.137Z,6.35
2022-08-01T12:53:40.593Z,7.57
2022-08-01T12:56:09.168Z,13.88
2022-08-01T12:58:36.529Z,13.40
2022-08-01T13:01:05.435Z,12.93
2022-08-01T13:03:32.499Z,11.50
2022-08-01T13:05:59.652Z,9.52
2022-08-01T13:08:31.644Z,7.05
2022-08-01T13:11:05.748Z,6.78
2022-08-01T13:13:43.894Z,7.80
2022-08-01T13:16:18.114Z,8.35
2022-08-01T13:18:59.428Z,9.80
2022-08-01T13:21:29.108Z,7.93
2022-08-01T13:24:04.621Z,8.32
2022-08-01T13:26:46.902Z,6.50
2022-08-01T13:29:18.612Z,6.70
2022-08-01T13:31:46.212Z,6.45
2022-08-01T13:34:13.618Z,6.95
2022-08-01T13:36:46.873Z,6.75
2022-08-01T13:39:35.080Z,6.93
2022-08-01T13:42:01.984Z,7.78
2022-08-01T13:44:29.823Z,6.50
2022-08-01T13:46:57.037Z,6.55
2022-08-01T13:49:24.274Z,9.07
2022-08-01T13:51:51.979Z,5.97
2022-08-01T13:54:19.091Z,6.18
2022-08-01T13:56:45.908Z,5.80
2022-08-01T13:59:13.817Z,6.78
2022-08-01T14:01:40.625Z,5.75
2022-08-01T14:04:07.750Z,5.05
2022-08-01T14:06:36.078Z,8.07
2022-08-01T14:09:18.207Z,5.95
2022-08-01T14:11:50.915Z,6.37
2022-08-01T14:14:17.856Z,4.90
2022-08-01T14:16:45.990Z,4.97
2022-08-01T14:19:13.403Z,7.07
2022-08-01T14:21:40.093Z,9.48
2022-08-01T14:24:07.720Z,5.40
2022-08-01T14:26:34.947Z,5.87
2022-08-01T14:29:03.755Z,6.25
2022-08-01T14:31:34.032Z,6.07
2022-08-01T14:34:01.921Z,10.50
2022-08-01T14:36:31.281Z,6.90
2022-08-01T14:39:00.595Z,9.27
2022-08-01T14:41:28.778Z,5.62
2022-08-01T14:43:58.425Z,5.30
2022-08-01T14:46:25.123Z,4.93
2022-08-01T14:48:52.134Z,6.55
2022-08-01T14:51:18.826Z,8.38
2022-08-01T14:53:46.867Z,6.60
2022-08-01T14:56:18.398Z,6.65
2022-08-01T14:58:45.543Z,8.30
2022-08-01T15:01:12.294Z,5.80
2022-08-01T15:03:39.330Z,17.65
2022-08-01T15:06:07.405Z,8.30
2022-08-01T15:08:34.302Z,8.88
2022-08-01T15:11:02.585Z,7.40
2022-08-01T15:13:29.298Z,9.05
2022-08-01T15:16:00.102Z,8.98
2022-08-01T15:21:01.094Z,10.23
2022-08-01T15:23:28.140Z,12.57
2022-08-01T15:25:54.878Z,9.27
2022-08-01T15:28:21.613Z,7.57
2022-08-01T15:30:48.545Z,8.13
2022-08-01T15:33:15.234Z,8.50
2022-08-01T15:35:43.603Z,7.10
2022-08-01T15:38:10.624Z,12.27
2022-08-01T15:40:37.354Z,12.25
2022-08-01T15:43:04.054Z,20.37
2022-08-01T15:45:47.298Z,11.57
2022-08-01T15:48:15.122Z,8.25
2022-08-01T15:50:42.098Z,11.55
2022-08-01T15:53:08.926Z,12.27
2022-08-01T15:55:38.255Z,9.95
2022-08-01T15:58:06.542Z,8.95
2022-08-01T16:00:38.757Z,9.18
2022-08-01T16:03:08.145Z,9.50
2022-08-01T16:05:42.518Z,8.27
2022-08-01T16:08:12.449Z,8.27
2022-08-01T16:10:39.250Z,7.97
2022-08-01T16:13:07.484Z,8.05
2022-08-01T16:15:39.229Z,7.18
2022-08-01T16:18:07.911Z,6.72
2022-08-01T16:20:35.890Z,7.15
2022-08-01T16:23:02.633Z,7.37
2022-08-01T16:25:29.533Z,7.03
2022-08-01T16:27:56.610Z,6.90
2022-08-01T16:30:23.434Z,7.20
2022-08-01T16:32:55.046Z,9.07
2022-08-01T16:35:36.293Z,7.45
2022-08-01T16:38:04.872Z,8.23
2022-08-01T16:40:34.972Z,10.65
2022-08-01T16:43:15.934Z,8.90
2022-08-01T16:45:43.241Z,10.88
2022-08-01T16:48:21.223Z,8.95
2022-08-01T16:50:49.603Z,11.45
2022-08-01T16:53:21.691Z,10.38
2022-08-01T16:55:50.929Z,10.85
2022-08-01T16:58:27.283Z,8.95
2022-08-01T17:01:56.187Z,9.02
2022-08-01T17:03:52.849Z,10.75
2022-08-01T17:06:22.168Z,7.95
2022-08-01T17:08:49.946Z,8.07
2022-08-01T17:11:17.274Z,9.00
2022-08-01T17:13:44.496Z,8.50
2022-08-01T17:16:11.911Z,7.22
2022-08-01T17:18:38.918Z,9.35
2022-08-01T17:21:06.358Z,16.05
2022-08-01T17:23:33.680Z,8.07
2022-08-01T17:26:00.496Z,7.72
2022-08-01T17:28:27.797Z,9.68
2022-08-01T17:30:54.762Z,8.45
2022-08-01T17:33:21.824Z,7.95
2022-08-01T17:35:48.896Z,9.35
2022-08-01T17:38:15.673Z,17.20
2022-08-01T17:40:43.962Z,21.52
2022-08-01T17:43:11.095Z,9.50
2022-08-01T17:45:50.943Z,8.43
2022-08-01T17:48:19.709Z,8.83
2022-08-01T17:50:47.737Z,7.53
2022-08-01T17:53:16.139Z,7.78
2022-08-01T17:55:55.452Z,7.78
2022-08-01T17:58:32.996Z,8.05
2022-08-01T18:01:12.605Z,8.48
2022-08-01T18:03:41.467Z,8.27
2022-08-01T18:06:09.840Z,7.82
2022-08-01T18:08:36.716Z,8.27
2022-08-01T18:11:03.761Z,9.82
2022-08-01T18:13:30.466Z,7.53
2022-08-01T18:15:57.514Z,7.85
2022-08-01T18:18:33.212Z,8.70
2022-08-01T18:21:04.132Z,7.93
2022-08-01T18:23:33.501Z,8.52
2022-08-01T18:26:02.425Z,8.07
2022-08-01T18:28:35.354Z,7.03
2022-08-01T18:31:06.346Z,8.90
2022-08-01T18:33:35.198Z,8.35
2022-08-01T18:36:04.244Z,8.45
2022-08-01T18:38:33.123Z,7.68
2022-08-01T18:41:01.303Z,8.20
2022-08-01T18:43:28.751Z,7.65
2022-08-01T18:45:58.636Z,7.53
2022-08-01T18:48:25.449Z,8.30
2022-08-01T18:50:54.001Z,7.60
2022-08-01T18:53:25.147Z,7.87
2022-08-01T18:55:51.801Z,7.00
2022-08-01T18:58:18.708Z,7.50
2022-08-01T19:00:45.683Z,7.70
2022-08-01T19:03:13.708Z,7.20
2022-08-01T19:05:40.387Z,7.78
2022-08-01T19:08:08.175Z,7.50
2022-08-01T19:10:36.895Z,8.00
2022-08-01T19:13:04.021Z,8.38
2022-08-01T19:15:31.269Z,8.77
2022-08-01T19:17:58.032Z,7.50
2022-08-01T19:20:24.780Z,8.50
2022-08-01T19:22:51.892Z,10.70
2022-08-01T19:25:18.645Z,8.50
2022-08-01T19:27:49.872Z,15.10
2022-08-01T19:30:18.660Z,9.50
2022-08-01T19:32:47.421Z,8.32
2022-08-01T19:35:16.880Z,10.98
2022-08-01T19:37:47.291Z,10.98
2022-08-01T19:40:27.172Z,12.20
2022-08-01T19:42:57.313Z,8.48
2022-08-01T19:45:28.431Z,7.57
2022-08-01T19:47:57.033Z,7.75
2022-08-01T19:50:28.751Z,8.00
2022-08-01T19:55:28.690Z,7.43
2022-08-01T20:00:44.740Z,6.37
2022-08-01T20:03:14.987Z,7.28
2022-08-01T20:05:41.811Z,7.12
2022-08-01T20:08:09.805Z,7.37
2022-08-01T20:10:40.637Z,7.50
2022-08-01T20:13:09.650Z,5.78
2022-08-01T20:15:38.841Z,6.30
2022-08-01T20:18:05.935Z,6.15
2022-08-01T20:20:35.266Z,6.68
2022-08-01T20:23:03.612Z,7.43
2022-08-01T20:25:40.272Z,6.55
2022-08-01T20:28:11.041Z,6.22
2022-08-01T20:30:39.776Z,6.70
2022-08-01T20:33:08.300Z,6.75
2022-08-01T20:35:53.391Z,6.25
2022-08-01T20:38:27.745Z,6.37
2022-08-01T20:40:58.757Z,7.28
2022-08-01T20:43:28.840Z,5.85
2022-08-01T20:45:56.875Z,10.02
2022-08-01T20:48:26.550Z,7.47
2022-08-01T20:51:12.333Z,7.30
2022-08-01T20:53:43.403Z,6.65
2022-08-01T20:56:14.633Z,6.30
2022-08-01T20:59:06.531Z,11.43
2022-08-01T21:01:41.247Z,7.80
2022-08-01T21:04:26.743Z,9.30
2022-08-01T21:07:23.739Z,7.60
2022-08-01T21:10:02.513Z,6.35
2022-08-01T21:12:43.781Z,7.15
2022-08-01T21:15:15.460Z,6.57
2022-08-01T21:18:02.567Z,6.20
2022-08-01T21:20:33.433Z,6.40
2022-08-01T21:23:15.008Z,6.82
2022-08-01T21:25:43.735Z,6.68
2022-08-01T21:28:14.871Z,7.32
2022-08-01T21:30:42.389Z,6.68
2022-08-01T21:33:22.786Z,6.87
2022-08-01T21:35:55.599Z,7.35
2022-08-01T21:38:23.947Z,7.03
2022-08-01T21:40:52.652Z,7.37
2022-08-01T21:43:21.317Z,6.90
2022-08-01T21:45:57.976Z,7.07
2022-08-01T21:48:26.859Z,7.03
2022-08-01T21:50:59.456Z,6.80
2022-08-01T21:53:36.916Z,7.10
2022-08-01T21:56:14.816Z,6.75
2022-08-01T21:59:14.022Z,7.22
2022-08-01T22:01:52.175Z,7.12
2022-08-01T22:04:33.583Z,7.28
2022-08-01T22:07:02.762Z,6.97
2022-08-01T22:09:31.900Z,7.10
2022-08-01T22:12:05.300Z,6.72
2022-08-01T22:14:33.681Z,7.07
2022-08-01T22:17:01.365Z,6.75
2022-08-01T22:19:44.032Z,7.15
2022-08-01T22:22:51.164Z,6.90
2022-08-01T22:25:00.391Z,6.87
2022-08-01T22:28:08.948Z,6.57
2022-08-01T22:30:16.290Z,7.05
2022-08-01T22:32:45.551Z,7.35
2022-08-01T22:35:32.737Z,7.47
2022-08-01T22:37:59.696Z,8.23
2022-08-01T22:40:28.224Z,7.20
2022-08-01T22:43:02.246Z,7.28
2022-08-01T22:45:40.689Z,6.95
2022-08-01T22:48:24.597Z,7.72
2022-08-01T22:51:32.807Z,6.87
2022-08-01T22:54:12.836Z,8.20
2022-08-01T22:56:47.269Z,8.05
2022-08-01T22:59:17.256Z,7.37
2022-08-01T23:01:48.419Z,6.97
2022-08-01T23:04:34.640Z,7.47
2022-08-01T23:07:05.015Z,8.45
2022-08-01T23:09:39.336Z,8.40
2022-08-01T23:12:22.826Z,8.15
2022-08-01T23:14:52.830Z,9.23
2022-08-01T23:17:26.758Z,8.82
2022-08-01T23:20:01.511Z,8.60
2022-08-01T23:22:31.387Z,8.73
2022-08-01T23:25:05.067Z,8.70
2022-08-01T23:27:55.798Z,8.70
2022-08-01T23:30:25.676Z,8.32
2022-08-01T23:32:52.582Z,8.73
2022-08-01T23:35:19.931Z,8.95
2022-08-01T23:37:46.958Z,8.93
2022-08-01T23:40:13.675Z,8.70
2022-08-01T23:42:40.416Z,8.82
2022-08-01T23:45:08.110Z,8.98
2022-08-01T23:47:34.791Z,8.32
2022-08-01T23:50:01.571Z,10.00
2022-08-01T23:52:29.352Z,10.55
2022-08-01T23:54:59.746Z,12.23
2022-08-01T23:59:57.253Z,11.15
